<?xml version="1.0" standalone="yes"?>
<gpx version="1.0" creator="GPS Visualizer http://www.gpsvisualizer.com/" xmlns="http://www.topografix.com/GPX/1/0" xmlns:xsi="http://www.w3.org/2001/XMLSchema-instance" xsi:schemaLocation="http://www.topografix.com/GPX/1/0 http://www.topografix.com/GPX/1/0/gpx.xsd">
	<wpt lat="36.973" lon="-121.951">
		<ele>3</ele>
		<name>Cap</name>
		<desc>Capitola</desc>
	</wpt>
	<wpt lat="36.766" lon="-121.758">
		<ele>6</ele>
		<name>Cas</name>
		<desc>Castroville</desc>
	</wpt>
	<wpt lat="36.655" lon="-121.805">
		<ele>48</ele>
		<name>CSUMB</name>
		<desc>CSU - Monterey Bay</desc>
	</wpt>
	<wpt lat="37.009" lon="-122.194">
		<ele>12</ele>
		<name>Dav</name>
		<desc>Davenport</desc>
	</wpt>
	<wpt lat="37.053" lon="-122.074">
		<ele>87</ele>
		<name>Fel</name>
		<desc>Felton</desc>
	</wpt>
	<wpt lat="36.809" lon="-121.784">
		<ele>2</ele>
		<name>ML</name>
		<desc>Moss Landing</desc>
	</wpt>
	<wpt lat="36.585" lon="-121.844">
		<ele>30</ele>
		<name>MRY</name>
		<desc>Monterey airport</desc>
	</wpt>
	<wpt lat="36.619" lon="-121.844">
		<ele>12</ele>
		<name>SC</name>
		<desc>Sand City</desc>
	</wpt>
	<wpt lat="36.977" lon="-122.027">
		<ele>7</ele>
		<name>SC</name>
		<desc>Santa Cruz</desc>
	</wpt>
	<wpt lat="36.663" lon="-121.607">
		<ele>26</ele>
		<name>SNS</name>
		<desc>Salinas airport</desc>
	</wpt>
	<wpt lat="36.988" lon="-121.957">
		<ele>36</ele>
		<name>Soq</name>
		<desc>Soquel</desc>
	</wpt>
	<wpt lat="36.977" lon="-122.054">
		<ele>91</ele>
		<name>UCSC</name>
		<desc>UC Santa Cruz</desc>
	</wpt>
	<wpt lat="36.910" lon="-121.756">
		<ele>9</ele>
		<name>Wat</name>
		<desc>Watsonville</desc>
	</wpt>
	<wpt lat="36.936" lon="-121.790">
		<ele>49</ele>
		<name>WVI</name>
		<desc>Watsonville airport</desc>
	</wpt>
	<trk>
		<name>Monterey Bay drive</name>
		<desc>From Santa Cruz to CSU-Monterey Bay</desc>
		<trkseg>
			<trkpt lat="36.9692217" lon="-122.0375267"><ele>22.0</ele><time>2003-01-30T17:42:14Z</time><course>27.0</course><speed>0.3</speed><fix>3</fix><sat>7</sat><hdop>1.2</hdop></trkpt>
			<trkpt lat="36.9698467" lon="-122.0371150"><ele>22.0</ele><time>2003-01-30T17:42:24Z</time><course>27.9</course><speed>13.7</speed><fix>3</fix><sat>7</sat><hdop>1.2</hdop></trkpt>
			<trkpt lat="36.9709967" lon="-122.0363900"><ele>23.0</ele><time>2003-01-30T17:42:34Z</time><course>26.8</course><speed>14.0</speed><fix>3</fix><sat>7</sat><hdop>1.2</hdop></trkpt>
			<trkpt lat="36.9719967" lon="-122.0357233"><ele>25.0</ele><time>2003-01-30T17:42:44Z</time><course>29.5</course><speed>7.4</speed><fix>3</fix><sat>7</sat><hdop>1.2</hdop></trkpt>
			<trkpt lat="36.9721617" lon="-122.0356100"><ele>25.0</ele><time>2003-01-30T17:42:54Z</time><speed>0.0</speed><fix>3</fix><sat>7</sat><hdop>1.2</hdop></trkpt>
			<trkpt lat="36.9721633" lon="-122.0356100"><ele>26.0</ele><time>2003-01-30T17:43:04Z</time><speed>0.0</speed><fix>3</fix><sat>7</sat><hdop>1.2</hdop></trkpt>
			<trkpt lat="36.9724417" lon="-122.0354250"><ele>25.0</ele><time>2003-01-30T17:43:14Z</time><course>27.5</course><speed>10.5</speed><fix>3</fix><sat>7</sat><hdop>1.2</hdop></trkpt>
			<trkpt lat="36.9735967" lon="-122.0347067"><ele>26.0</ele><time>2003-01-30T17:43:24Z</time><course>26.8</course><speed>16.9</speed><fix>3</fix><sat>7</sat><hdop>1.2</hdop></trkpt>
			<trkpt lat="36.9748867" lon="-122.0338767"><ele>26.0</ele><time>2003-01-30T17:43:34Z</time><course>34.7</course><speed>15.1</speed><fix>3</fix><sat>7</sat><hdop>1.2</hdop></trkpt>
			<trkpt lat="36.9760400" lon="-122.0327700"><ele>28.0</ele><time>2003-01-30T17:43:44Z</time><course>34.4</course><speed>15.5</speed><fix>3</fix><sat>6</sat><hdop>1.5</hdop></trkpt>
			<trkpt lat="36.9765383" lon="-122.0322183"><ele>29.0</ele><time>2003-01-30T17:43:54Z</time><course>66.5</course><speed>1.5</speed><fix>3</fix><sat>7</sat><hdop>1.2</hdop></trkpt>
			<trkpt lat="36.9765567" lon="-122.0321950"><ele>29.0</ele><time>2003-01-30T17:44:04Z</time><speed>0.0</speed><fix>3</fix><sat>7</sat><hdop>1.2</hdop></trkpt>
			<trkpt lat="36.9765600" lon="-122.0321933"><ele>28.0</ele><time>2003-01-30T17:44:14Z</time><speed>0.0</speed><fix>3</fix><sat>7</sat><hdop>1.2</hdop></trkpt>
			<trkpt lat="36.9765633" lon="-122.0321933"><ele>28.0</ele><time>2003-01-30T17:44:24Z</time><speed>0.0</speed><fix>3</fix><sat>7</sat><hdop>1.2</hdop></trkpt>
			<trkpt lat="36.9765683" lon="-122.0321917"><ele>27.0</ele><time>2003-01-30T17:44:34Z</time><course>45.3</course><speed>0.6</speed><fix>3</fix><sat>7</sat><hdop>1.2</hdop></trkpt>
			<trkpt lat="36.9771867" lon="-122.0318150"><ele>27.0</ele><time>2003-01-30T17:44:44Z</time><course>5.1</course><speed>13.0</speed><fix>3</fix><sat>6</sat><hdop>1.8</hdop></trkpt>
			<trkpt lat="36.9787000" lon="-122.0317383"><ele>29.0</ele><time>2003-01-30T17:44:54Z</time><course>354.8</course><speed>18.9</speed><fix>3</fix><sat>6</sat><hdop>1.8</hdop></trkpt>
			<trkpt lat="36.9805467" lon="-122.0322267"><ele>22.0</ele><time>2003-01-30T17:45:04Z</time><course>347.7</course><speed>21.6</speed><fix>3</fix><sat>5</sat><hdop>2</hdop></trkpt>
			<trkpt lat="36.9824367" lon="-122.0320150"><ele>13.0</ele><time>2003-01-30T17:45:14Z</time><course>23.3</course><speed>21.5</speed><fix>3</fix><sat>7</sat><hdop>1.2</hdop></trkpt>
			<trkpt lat="36.9837733" lon="-122.0307517"><ele>13.0</ele><time>2003-01-30T17:45:24Z</time><course>47.5</course><speed>13.8</speed><fix>3</fix><sat>7</sat><hdop>1.2</hdop></trkpt>
			<trkpt lat="36.9840967" lon="-122.0302517"><ele>12.0</ele><time>2003-01-30T17:45:34Z</time><speed>0.0</speed><fix>3</fix><sat>7</sat><hdop>1.2</hdop></trkpt>
			<trkpt lat="36.9841000" lon="-122.0302533"><ele>12.0</ele><time>2003-01-30T17:45:44Z</time><speed>0.0</speed><fix>3</fix><sat>6</sat><hdop>1.4</hdop></trkpt>
			<trkpt lat="36.9841050" lon="-122.0302550"><ele>12.0</ele><time>2003-01-30T17:45:54Z</time><speed>0.0</speed><fix>3</fix><sat>6</sat><hdop>1.4</hdop></trkpt>
			<trkpt lat="36.9841083" lon="-122.0302567"><ele>12.0</ele><time>2003-01-30T17:46:04Z</time><speed>0.0</speed><fix>3</fix><sat>6</sat><hdop>1.4</hdop></trkpt>
			<trkpt lat="36.9844300" lon="-122.0296300"><ele>12.0</ele><time>2003-01-30T17:46:14Z</time><course>62.1</course><speed>13.5</speed><fix>3</fix><sat>7</sat><hdop>1.2</hdop></trkpt>
			<trkpt lat="36.9849550" lon="-122.0279583"><ele>13.0</ele><time>2003-01-30T17:46:24Z</time><course>71.4</course><speed>17.3</speed><fix>3</fix><sat>7</sat><hdop>1.2</hdop></trkpt>
			<trkpt lat="36.9855383" lon="-122.0258233"><ele>19.0</ele><time>2003-01-30T17:46:34Z</time><course>69.4</course><speed>23.7</speed><fix>3</fix><sat>7</sat><hdop>1.2</hdop></trkpt>
			<trkpt lat="36.9864783" lon="-122.0234750"><ele>22.0</ele><time>2003-01-30T17:46:44Z</time><course>44.1</course><speed>23.0</speed><fix>3</fix><sat>6</sat><hdop>1.4</hdop></trkpt>
			<trkpt lat="36.9883833" lon="-122.0219933"><ele>26.0</ele><time>2003-01-30T17:46:54Z</time><course>39.0</course><speed>24.2</speed><fix>3</fix><sat>6</sat><hdop>1.4</hdop></trkpt>
			<trkpt lat="36.9892200" lon="-122.0196133"><ele>29.0</ele><time>2003-01-30T17:47:04Z</time><course>93.7</course><speed>19.5</speed><fix>3</fix><sat>7</sat><hdop>1.2</hdop></trkpt>
			<trkpt lat="36.9889417" lon="-122.0172717"><ele>22.0</ele><time>2003-01-30T17:47:14Z</time><course>99.2</course><speed>24.8</speed><fix>3</fix><sat>7</sat><hdop>1.2</hdop></trkpt>
			<trkpt lat="36.9886533" lon="-122.0143850"><ele>22.0</ele><time>2003-01-30T17:47:24Z</time><course>93.3</course><speed>26.4</speed><fix>3</fix><sat>7</sat><hdop>1.2</hdop></trkpt>
			<trkpt lat="36.9885317" lon="-122.0111400"><ele>30.0</ele><time>2003-01-30T17:47:34Z</time><course>92.8</course><speed>30.0</speed><fix>3</fix><sat>5</sat><hdop>1.8</hdop></trkpt>
			<trkpt lat="36.9884133" lon="-122.0078183"><ele>37.0</ele><time>2003-01-30T17:47:44Z</time><course>92.4</course><speed>29.4</speed><fix>3</fix><sat>7</sat><hdop>1.2</hdop></trkpt>
			<trkpt lat="36.9882983" lon="-122.0045133"><ele>34.0</ele><time>2003-01-30T17:47:54Z</time><course>92.1</course><speed>30.1</speed><fix>3</fix><sat>7</sat><hdop>1.2</hdop></trkpt>
			<trkpt lat="36.9882233" lon="-122.0011350"><ele>37.0</ele><time>2003-01-30T17:48:04Z</time><course>91.3</course><speed>29.6</speed><fix>3</fix><sat>7</sat><hdop>1.2</hdop></trkpt>
			<trkpt lat="36.9881783" lon="-121.9978283"><ele>35.0</ele><time>2003-01-30T17:48:14Z</time><course>91.0</course><speed>30.1</speed><fix>3</fix><sat>7</sat><hdop>1.2</hdop></trkpt>
			<trkpt lat="36.9881183" lon="-121.9943617"><ele>31.0</ele><time>2003-01-30T17:48:24Z</time><course>92.6</course><speed>31.2</speed><fix>3</fix><sat>7</sat><hdop>1.2</hdop></trkpt>
			<trkpt lat="36.9877967" lon="-121.9911050"><ele>30.0</ele><time>2003-01-30T17:48:34Z</time><course>97.4</course><speed>27.9</speed><fix>3</fix><sat>7</sat><hdop>1.2</hdop></trkpt>
			<trkpt lat="36.9874233" lon="-121.9879583"><ele>31.0</ele><time>2003-01-30T17:48:44Z</time><course>100.9</course><speed>29.2</speed><fix>3</fix><sat>6</sat><hdop>1.4</hdop></trkpt>
			<trkpt lat="36.9866850" lon="-121.9846900"><ele>37.0</ele><time>2003-01-30T17:48:54Z</time><course>106.9</course><speed>29.8</speed><fix>3</fix><sat>7</sat><hdop>1.2</hdop></trkpt>
			<trkpt lat="36.9858900" lon="-121.9815617"><ele>40.0</ele><time>2003-01-30T17:49:04Z</time><course>107.9</course><speed>29.6</speed><fix>3</fix><sat>7</sat><hdop>1.2</hdop></trkpt>
			<trkpt lat="36.9850933" lon="-121.9783800"><ele>43.0</ele><time>2003-01-30T17:49:14Z</time><course>107.4</course><speed>29.3</speed><fix>3</fix><sat>7</sat><hdop>1.2</hdop></trkpt>
			<trkpt lat="36.9843117" lon="-121.9752300"><ele>42.0</ele><time>2003-01-30T17:49:24Z</time><course>107.1</course><speed>28.4</speed><fix>3</fix><sat>7</sat><hdop>1.2</hdop></trkpt>
			<trkpt lat="36.9835550" lon="-121.9721583"><ele>39.0</ele><time>2003-01-30T17:49:34Z</time><course>107.0</course><speed>28.8</speed><fix>3</fix><sat>7</sat><hdop>1.2</hdop></trkpt>
			<trkpt lat="36.9829650" lon="-121.9689500"><ele>37.0</ele><time>2003-01-30T17:49:44Z</time><course>96.4</course><speed>29.9</speed><fix>3</fix><sat>7</sat><hdop>1.2</hdop></trkpt>
			<trkpt lat="36.9827800" lon="-121.9655967"><ele>36.0</ele><time>2003-01-30T17:49:54Z</time><course>93.1</course><speed>29.2</speed><fix>3</fix><sat>7</sat><hdop>1.2</hdop></trkpt>
			<trkpt lat="36.9827383" lon="-121.9623950"><ele>33.0</ele><time>2003-01-30T17:50:04Z</time><course>85.4</course><speed>28.1</speed><fix>3</fix><sat>7</sat><hdop>1.2</hdop></trkpt>
			<trkpt lat="36.9830083" lon="-121.9592733"><ele>25.0</ele><time>2003-01-30T17:50:14Z</time><course>83.2</course><speed>28.5</speed><fix>3</fix><sat>7</sat><hdop>1.2</hdop></trkpt>
			<trkpt lat="36.9833133" lon="-121.9560617"><ele>21.0</ele><time>2003-01-30T17:50:24Z</time><course>83.6</course><speed>29.0</speed><fix>3</fix><sat>7</sat><hdop>1.2</hdop></trkpt>
			<trkpt lat="36.9836017" lon="-121.9529467"><ele>29.0</ele><time>2003-01-30T17:50:34Z</time><course>83.8</course><speed>26.1</speed><fix>3</fix><sat>5</sat><hdop>1.8</hdop></trkpt>
			<trkpt lat="36.9838450" lon="-121.9501000"><ele>42.0</ele><time>2003-01-30T17:50:44Z</time><course>83.7</course><speed>25.9</speed><fix>3</fix><sat>7</sat><hdop>1.2</hdop></trkpt>
			<trkpt lat="36.9839833" lon="-121.9472700"><ele>43.0</ele><time>2003-01-30T17:50:54Z</time><course>89.3</course><speed>24.9</speed><fix>3</fix><sat>7</sat><hdop>1.2</hdop></trkpt>
			<trkpt lat="36.9839733" lon="-121.9442767"><ele>37.0</ele><time>2003-01-30T17:51:04Z</time><course>90.2</course><speed>27.9</speed><fix>3</fix><sat>7</sat><hdop>1.2</hdop></trkpt>
			<trkpt lat="36.9839683" lon="-121.9412117"><ele>40.0</ele><time>2003-01-30T17:51:14Z</time><course>89.6</course><speed>26.5</speed><fix>3</fix><sat>7</sat><hdop>1.2</hdop></trkpt>
			<trkpt lat="36.9839633" lon="-121.9381900"><ele>44.0</ele><time>2003-01-30T17:51:24Z</time><course>90.4</course><speed>26.4</speed><fix>3</fix><sat>6</sat><hdop>1.4</hdop></trkpt>
			<trkpt lat="36.9839433" lon="-121.9350717"><ele>46.0</ele><time>2003-01-30T17:51:34Z</time><course>92.5</course><speed>28.8</speed><fix>3</fix><sat>7</sat><hdop>1.2</hdop></trkpt>
			<trkpt lat="36.9837950" lon="-121.9317383"><ele>49.0</ele><time>2003-01-30T17:51:44Z</time><course>97.9</course><speed>29.8</speed><fix>3</fix><sat>6</sat><hdop>1.4</hdop></trkpt>
			<trkpt lat="36.9833600" lon="-121.9285283"><ele>50.0</ele><time>2003-01-30T17:51:54Z</time><course>99.5</course><speed>27.6</speed><fix>3</fix><sat>7</sat><hdop>1.2</hdop></trkpt>
			<trkpt lat="36.9829317" lon="-121.9254183"><ele>51.0</ele><time>2003-01-30T17:52:04Z</time><course>98.5</course><speed>27.1</speed><fix>3</fix><sat>7</sat><hdop>1.2</hdop></trkpt>
			<trkpt lat="36.9825267" lon="-121.9222800"><ele>51.0</ele><time>2003-01-30T17:52:14Z</time><course>99.7</course><speed>29.0</speed><fix>3</fix><sat>7</sat><hdop>1.2</hdop></trkpt>
			<trkpt lat="36.9819767" lon="-121.9190300"><ele>52.0</ele><time>2003-01-30T17:52:24Z</time><course>107.1</course><speed>29.4</speed><fix>3</fix><sat>7</sat><hdop>1.2</hdop></trkpt>
			<trkpt lat="36.9809017" lon="-121.9160700"><ele>55.0</ele><time>2003-01-30T17:52:34Z</time><course>121.7</course><speed>28.7</speed><fix>3</fix><sat>7</sat><hdop>1.2</hdop></trkpt>
			<trkpt lat="36.9794450" lon="-121.9132883"><ele>55.0</ele><time>2003-01-30T17:52:44Z</time><course>123.1</course><speed>31.2</speed><fix>3</fix><sat>6</sat><hdop>1.4</hdop></trkpt>
			<trkpt lat="36.9779517" lon="-121.9104367"><ele>50.0</ele><time>2003-01-30T17:52:54Z</time><course>123.1</course><speed>29.9</speed><fix>3</fix><sat>6</sat><hdop>1.3</hdop></trkpt>
			<trkpt lat="36.9764333" lon="-121.9075400"><ele>41.0</ele><time>2003-01-30T17:53:04Z</time><course>122.6</course><speed>31.6</speed><fix>3</fix><sat>7</sat><hdop>1.2</hdop></trkpt>
			<trkpt lat="36.9753917" lon="-121.9043583"><ele>32.0</ele><time>2003-01-30T17:53:14Z</time><course>99.9</course><speed>29.9</speed><fix>3</fix><sat>7</sat><hdop>1.2</hdop></trkpt>
			<trkpt lat="36.9749900" lon="-121.9010883"><ele>26.0</ele><time>2003-01-30T17:53:24Z</time><course>97.8</course><speed>29.9</speed><fix>3</fix><sat>4</sat><hdop>3.4</hdop></trkpt>
			<trkpt lat="36.9748967" lon="-121.8977200"><ele>30.0</ele><time>2003-01-30T17:53:34Z</time><course>85.0</course><speed>29.1</speed><fix>3</fix><sat>6</sat><hdop>1.4</hdop></trkpt>
			<trkpt lat="36.9751050" lon="-121.8944383"><ele>37.0</ele><time>2003-01-30T17:53:44Z</time><course>85.6</course><speed>28.4</speed><fix>3</fix><sat>6</sat><hdop>1.8</hdop></trkpt>
			<trkpt lat="36.9753050" lon="-121.8912183"><ele>39.0</ele><time>2003-01-30T17:53:54Z</time><course>85.6</course><speed>28.7</speed><fix>3</fix><sat>7</sat><hdop>1.2</hdop></trkpt>
			<trkpt lat="36.9752600" lon="-121.8880000"><ele>44.0</ele><time>2003-01-30T17:54:04Z</time><course>98.2</course><speed>28.9</speed><fix>3</fix><sat>5</sat><hdop>1.8</hdop></trkpt>
			<trkpt lat="36.9745300" lon="-121.8849117"><ele>43.0</ele><time>2003-01-30T17:54:14Z</time><course>114.1</course><speed>29.4</speed><fix>3</fix><sat>7</sat><hdop>1.2</hdop></trkpt>
			<trkpt lat="36.9734433" lon="-121.8818050"><ele>44.0</ele><time>2003-01-30T17:54:24Z</time><course>113.7</course><speed>29.6</speed><fix>3</fix><sat>7</sat><hdop>1.2</hdop></trkpt>
			<trkpt lat="36.9723717" lon="-121.8788133"><ele>46.0</ele><time>2003-01-30T17:54:34Z</time><course>113.6</course><speed>29.6</speed><fix>3</fix><sat>7</sat><hdop>1.2</hdop></trkpt>
			<trkpt lat="36.9712883" lon="-121.8757167"><ele>49.0</ele><time>2003-01-30T17:54:44Z</time><course>113.6</course><speed>29.5</speed><fix>3</fix><sat>7</sat><hdop>1.2</hdop></trkpt>
			<trkpt lat="36.9700100" lon="-121.8727950"><ele>57.0</ele><time>2003-01-30T17:54:54Z</time><course>128.3</course><speed>30.2</speed><fix>3</fix><sat>7</sat><hdop>1.2</hdop></trkpt>
			<trkpt lat="36.9680717" lon="-121.8704500"><ele>74.0</ele><time>2003-01-30T17:55:04Z</time><course>141.0</course><speed>30.0</speed><fix>3</fix><sat>6</sat><hdop>1.8</hdop></trkpt>
			<trkpt lat="36.9659817" lon="-121.8683467"><ele>90.0</ele><time>2003-01-30T17:55:14Z</time><course>140.5</course><speed>29.3</speed><fix>3</fix><sat>6</sat><hdop>1.8</hdop></trkpt>
			<trkpt lat="36.9640417" lon="-121.8663017"><ele>92.0</ele><time>2003-01-30T17:55:24Z</time><course>138.9</course><speed>26.5</speed><fix>3</fix><sat>7</sat><hdop>1.2</hdop></trkpt>
			<trkpt lat="36.9620267" lon="-121.8642117"><ele>83.0</ele><time>2003-01-30T17:55:34Z</time><course>140.4</course><speed>30.5</speed><fix>3</fix><sat>7</sat><hdop>1.2</hdop></trkpt>
			<trkpt lat="36.9598867" lon="-121.8620150"><ele>76.0</ele><time>2003-01-30T17:55:44Z</time><course>140.3</course><speed>31.5</speed><fix>3</fix><sat>7</sat><hdop>1.2</hdop></trkpt>
			<trkpt lat="36.9577750" lon="-121.8598267"><ele>74.0</ele><time>2003-01-30T17:55:54Z</time><course>140.4</course><speed>30.1</speed><fix>3</fix><sat>7</sat><hdop>1.2</hdop></trkpt>
			<trkpt lat="36.9557467" lon="-121.8577583"><ele>72.0</ele><time>2003-01-30T17:56:04Z</time><course>140.8</course><speed>28.9</speed><fix>3</fix><sat>7</sat><hdop>1.2</hdop></trkpt>
			<trkpt lat="36.9536983" lon="-121.8556700"><ele>69.0</ele><time>2003-01-30T17:56:14Z</time><course>140.8</course><speed>30.0</speed><fix>3</fix><sat>8</sat><hdop>1</hdop></trkpt>
			<trkpt lat="36.9516483" lon="-121.8535633"><ele>69.0</ele><time>2003-01-30T17:56:24Z</time><course>139.1</course><speed>28.8</speed><fix>3</fix><sat>7</sat><hdop>1.2</hdop></trkpt>
			<trkpt lat="36.9497133" lon="-121.8514100"><ele>79.0</ele><time>2003-01-30T17:56:34Z</time><course>137.2</course><speed>28.9</speed><fix>3</fix><sat>8</sat><hdop>1</hdop></trkpt>
			<trkpt lat="36.9477767" lon="-121.8490333"><ele>89.0</ele><time>2003-01-30T17:56:44Z</time><course>134.2</course><speed>30.5</speed><fix>3</fix><sat>7</sat><hdop>1.2</hdop></trkpt>
			<trkpt lat="36.9459833" lon="-121.8466133"><ele>99.0</ele><time>2003-01-30T17:56:54Z</time><course>131.2</course><speed>29.6</speed><fix>3</fix><sat>7</sat><hdop>1.2</hdop></trkpt>
			<trkpt lat="36.9443017" lon="-121.8441033"><ele>109.0</ele><time>2003-01-30T17:57:04Z</time><course>129.2</course><speed>29.8</speed><fix>3</fix><sat>6</sat><hdop>1.8</hdop></trkpt>
			<trkpt lat="36.9426283" lon="-121.8415650"><ele>119.0</ele><time>2003-01-30T17:57:14Z</time><course>129.2</course><speed>28.9</speed><fix>3</fix><sat>7</sat><hdop>1.1</hdop></trkpt>
			<trkpt lat="36.9410550" lon="-121.8391733"><ele>128.0</ele><time>2003-01-30T17:57:24Z</time><course>129.6</course><speed>26.8</speed><fix>3</fix><sat>7</sat><hdop>1.1</hdop></trkpt>
			<trkpt lat="36.9395467" lon="-121.8367383"><ele>136.0</ele><time>2003-01-30T17:57:34Z</time><course>123.2</course><speed>28.7</speed><fix>3</fix><sat>7</sat><hdop>1</hdop></trkpt>
			<trkpt lat="36.9382900" lon="-121.8337917"><ele>133.0</ele><time>2003-01-30T17:57:44Z</time><course>112.2</course><speed>31.0</speed><fix>3</fix><sat>8</sat><hdop>1</hdop></trkpt>
			<trkpt lat="36.9372500" lon="-121.8304567"><ele>121.0</ele><time>2003-01-30T17:57:54Z</time><course>110.8</course><speed>32.3</speed><fix>3</fix><sat>7</sat><hdop>1.1</hdop></trkpt>
			<trkpt lat="36.9362367" lon="-121.8270617"><ele>118.0</ele><time>2003-01-30T17:58:04Z</time><course>110.2</course><speed>32.3</speed><fix>3</fix><sat>5</sat><hdop>1.3</hdop></trkpt>
			<trkpt lat="36.9352000" lon="-121.8236000"><ele>115.0</ele><time>2003-01-30T17:58:14Z</time><course>110.2</course><speed>33.3</speed><fix>3</fix><sat>7</sat><hdop>1.2</hdop></trkpt>
			<trkpt lat="36.9341617" lon="-121.8201167"><ele>109.0</ele><time>2003-01-30T17:58:24Z</time><course>110.4</course><speed>32.3</speed><fix>3</fix><sat>6</sat><hdop>1.2</hdop></trkpt>
			<trkpt lat="36.9331600" lon="-121.8167667"><ele>95.0</ele><time>2003-01-30T17:58:34Z</time><course>110.3</course><speed>33.2</speed><fix>3</fix><sat>6</sat><hdop>1.3</hdop></trkpt>
			<trkpt lat="36.9321100" lon="-121.8132500"><ele>74.0</ele><time>2003-01-30T17:58:44Z</time><course>110.5</course><speed>33.4</speed><fix>3</fix><sat>7</sat><hdop>1.1</hdop></trkpt>
			<trkpt lat="36.9311067" lon="-121.8098883"><ele>55.0</ele><time>2003-01-30T17:58:54Z</time><course>110.6</course><speed>31.6</speed><fix>3</fix><sat>8</sat><hdop>0.9</hdop></trkpt>
			<trkpt lat="36.9299650" lon="-121.8066117"><ele>35.0</ele><time>2003-01-30T17:59:04Z</time><course>117.8</course><speed>32.2</speed><fix>3</fix><sat>7</sat><hdop>1.1</hdop></trkpt>
			<trkpt lat="36.9283967" lon="-121.8037583"><ele>16.0</ele><time>2003-01-30T17:59:14Z</time><course>127.3</course><speed>29.3</speed><fix>3</fix><sat>7</sat><hdop>1.1</hdop></trkpt>
			<trkpt lat="36.9268167" lon="-121.8011517"><ele>18.0</ele><time>2003-01-30T17:59:24Z</time><course>127.0</course><speed>28.2</speed><fix>3</fix><sat>7</sat><hdop>1.2</hdop></trkpt>
			<trkpt lat="36.9253033" lon="-121.7985150"><ele>31.0</ele><time>2003-01-30T17:59:34Z</time><course>125.6</course><speed>28.8</speed><fix>3</fix><sat>8</sat><hdop>0.9</hdop></trkpt>
			<trkpt lat="36.9236850" lon="-121.7957583"><ele>30.0</ele><time>2003-01-30T17:59:44Z</time><course>127.0</course><speed>31.6</speed><fix>3</fix><sat>7</sat><hdop>1.1</hdop></trkpt>
			<trkpt lat="36.9219417" lon="-121.7929700"><ele>20.0</ele><time>2003-01-30T17:59:54Z</time><course>127.8</course><speed>30.9</speed><fix>3</fix><sat>7</sat><hdop>1.1</hdop></trkpt>
			<trkpt lat="36.9196750" lon="-121.7905133"><ele>13.0</ele><time>2003-01-30T18:00:05Z</time><course>145.1</course><speed>30.4</speed><fix>3</fix><sat>7</sat><hdop>1.1</hdop></trkpt>
			<trkpt lat="36.9173900" lon="-121.7890233"><ele>8.0</ele><time>2003-01-30T18:00:14Z</time><course>152.7</course><speed>31.4</speed><fix>3</fix><sat>8</sat><hdop>0.9</hdop></trkpt>
			<trkpt lat="36.9149450" lon="-121.7874567"><ele>3.0</ele><time>2003-01-30T18:00:24Z</time><course>152.9</course><speed>30.0</speed><fix>3</fix><sat>8</sat><hdop>0.9</hdop></trkpt>
			<trkpt lat="36.9125650" lon="-121.7859283"><ele>1.0</ele><time>2003-01-30T18:00:34Z</time><course>152.9</course><speed>29.3</speed><fix>3</fix><sat>8</sat><hdop>0.9</hdop></trkpt>
			<trkpt lat="36.9099400" lon="-121.7842400"><ele>4.0</ele><time>2003-01-30T18:00:45Z</time><course>153.1</course><speed>29.5</speed><fix>3</fix><sat>8</sat><hdop>0.9</hdop></trkpt>
			<trkpt lat="36.9078433" lon="-121.7828983"><ele>2.0</ele><time>2003-01-30T18:00:54Z</time><course>153.1</course><speed>28.9</speed><fix>3</fix><sat>8</sat><hdop>0.9</hdop></trkpt>
			<trkpt lat="36.9055017" lon="-121.7813983"><ele>0.0</ele><time>2003-01-30T18:01:04Z</time><course>152.9</course><speed>30.3</speed><fix>3</fix><sat>8</sat><hdop>0.9</hdop></trkpt>
			<trkpt lat="36.9030000" lon="-121.7797950"><ele>3.0</ele><time>2003-01-30T18:01:14Z</time><course>152.7</course><speed>30.9</speed><fix>3</fix><sat>7</sat><hdop>1.1</hdop></trkpt>
			<trkpt lat="36.9006133" lon="-121.7782650"><ele>8.0</ele><time>2003-01-30T18:01:24Z</time><course>152.5</course><speed>29.4</speed><fix>3</fix><sat>8</sat><hdop>0.9</hdop></trkpt>
		</trkseg>
		<trkseg>
			<trkpt lat="36.8955350" lon="-121.7749683"><ele>2.0</ele><time>2003-01-30T18:01:45Z</time><course>153.6</course><speed>31.3</speed><fix>3</fix><sat>8</sat><hdop>0.9</hdop></trkpt>
			<trkpt lat="36.8927867" lon="-121.7739667"><ele>4.0</ele><time>2003-01-30T18:01:55Z</time><course>172.9</course><speed>32.1</speed><fix>3</fix><sat>7</sat><hdop>1.1</hdop></trkpt>
			<trkpt lat="36.8898867" lon="-121.7735067"><ele>4.0</ele><time>2003-01-30T18:02:05Z</time><course>172.9</course><speed>32.6</speed><fix>3</fix><sat>7</sat><hdop>1.1</hdop></trkpt>
			<trkpt lat="36.8872067" lon="-121.7730783"><ele>6.0</ele><time>2003-01-30T18:02:15Z</time><course>172.3</course><speed>29.0</speed><fix>3</fix><sat>7</sat><hdop>1.1</hdop></trkpt>
			<trkpt lat="36.8849033" lon="-121.7727167"><ele>9.0</ele><time>2003-01-30T18:02:24Z</time><course>173.1</course><speed>29.0</speed><fix>3</fix><sat>7</sat><hdop>1.1</hdop></trkpt>
			<trkpt lat="36.8820917" lon="-121.7722683"><ele>8.0</ele><time>2003-01-30T18:02:35Z</time><course>172.8</course><speed>28.6</speed><fix>3</fix><sat>8</sat><hdop>1.1</hdop></trkpt>
			<trkpt lat="36.8795067" lon="-121.7718150"><ele>6.0</ele><time>2003-01-30T18:02:45Z</time><course>170.7</course><speed>28.9</speed><fix>3</fix><sat>9</sat><hdop>0.8</hdop></trkpt>
			<trkpt lat="36.8770183" lon="-121.7712783"><ele>10.0</ele><time>2003-01-30T18:02:55Z</time><course>170.1</course><speed>27.9</speed><fix>3</fix><sat>9</sat><hdop>0.8</hdop></trkpt>
			<trkpt lat="36.8746650" lon="-121.7708117"><ele>24.0</ele><time>2003-01-30T18:03:05Z</time><course>170.1</course><speed>25.1</speed><fix>3</fix><sat>8</sat><hdop>0.9</hdop></trkpt>
			<trkpt lat="36.8724867" lon="-121.7703883"><ele>35.0</ele><time>2003-01-30T18:03:15Z</time><course>172.9</course><speed>24.7</speed><fix>3</fix><sat>9</sat><hdop>0.8</hdop></trkpt>
			<trkpt lat="36.8701567" lon="-121.7701717"><ele>43.0</ele><time>2003-01-30T18:03:25Z</time><course>177.7</course><speed>25.8</speed><fix>3</fix><sat>9</sat><hdop>0.8</hdop></trkpt>
			<trkpt lat="36.8679983" lon="-121.7707250"><ele>47.0</ele><time>2003-01-30T18:03:35Z</time><course>197.1</course><speed>23.8</speed><fix>3</fix><sat>9</sat><hdop>0.8</hdop></trkpt>
			<trkpt lat="36.8658150" lon="-121.7711633"><ele>48.0</ele><time>2003-01-30T18:03:45Z</time><course>182.2</course><speed>25.3</speed><fix>3</fix><sat>9</sat><hdop>0.8</hdop></trkpt>
			<trkpt lat="36.8634717" lon="-121.7711350"><ele>49.0</ele><time>2003-01-30T18:03:55Z</time><course>180.1</course><speed>26.4</speed><fix>3</fix><sat>9</sat><hdop>0.8</hdop></trkpt>
			<trkpt lat="36.8611150" lon="-121.7711483"><ele>50.0</ele><time>2003-01-30T18:04:05Z</time><course>180.5</course><speed>26.2</speed><fix>3</fix><sat>9</sat><hdop>0.8</hdop></trkpt>
			<trkpt lat="36.8587950" lon="-121.7711617"><ele>54.0</ele><time>2003-01-30T18:04:15Z</time><course>180.5</course><speed>25.6</speed><fix>3</fix><sat>8</sat><hdop>0.9</hdop></trkpt>
			<trkpt lat="36.8564750" lon="-121.7711733"><ele>50.0</ele><time>2003-01-30T18:04:25Z</time><course>180.3</course><speed>26.1</speed><fix>3</fix><sat>8</sat><hdop>0.9</hdop></trkpt>
			<trkpt lat="36.8541283" lon="-121.7711817"><ele>47.0</ele><time>2003-01-30T18:04:35Z</time><course>180.5</course><speed>25.5</speed><fix>3</fix><sat>8</sat><hdop>0.9</hdop></trkpt>
			<trkpt lat="36.8517217" lon="-121.7711950"><ele>46.0</ele><time>2003-01-30T18:04:45Z</time><course>180.2</course><speed>27.8</speed><fix>3</fix><sat>8</sat><hdop>0.9</hdop></trkpt>
			<trkpt lat="36.8491900" lon="-121.7712200"><ele>43.0</ele><time>2003-01-30T18:04:55Z</time><course>180.2</course><speed>28.4</speed><fix>3</fix><sat>9</sat><hdop>0.8</hdop></trkpt>
			<trkpt lat="36.8466133" lon="-121.7712250"><ele>45.0</ele><time>2003-01-30T18:05:05Z</time><course>180.5</course><speed>29.0</speed><fix>3</fix><sat>9</sat><hdop>0.8</hdop></trkpt>
			<trkpt lat="36.8441483" lon="-121.7711867"><ele>45.0</ele><time>2003-01-30T18:05:15Z</time><course>178.8</course><speed>26.1</speed><fix>3</fix><sat>9</sat><hdop>0.8</hdop></trkpt>
			<trkpt lat="36.8417567" lon="-121.7711367"><ele>40.0</ele><time>2003-01-30T18:05:25Z</time><course>178.9</course><speed>26.8</speed><fix>3</fix><sat>9</sat><hdop>0.8</hdop></trkpt>
			<trkpt lat="36.8393583" lon="-121.7711000"><ele>35.0</ele><time>2003-01-30T18:05:35Z</time><course>179.8</course><speed>27.5</speed><fix>3</fix><sat>9</sat><hdop>0.8</hdop></trkpt>
			<trkpt lat="36.8369183" lon="-121.7710983"><ele>31.0</ele><time>2003-01-30T18:05:45Z</time><course>180.0</course><speed>26.9</speed><fix>3</fix><sat>6</sat><hdop>1.2</hdop></trkpt>
			<trkpt lat="36.8345283" lon="-121.7710683"><ele>20.0</ele><time>2003-01-30T18:05:55Z</time><course>180.0</course><speed>26.5</speed><fix>3</fix><sat>8</sat><hdop>1</hdop></trkpt>
			<trkpt lat="36.8321367" lon="-121.7710733"><ele>7.0</ele><time>2003-01-30T18:06:05Z</time><course>180.5</course><speed>26.4</speed><fix>3</fix><sat>9</sat><hdop>0.8</hdop></trkpt>
			<trkpt lat="36.8298867" lon="-121.7715067"><ele>0.0</ele><time>2003-01-30T18:06:15Z</time><course>199.8</course><speed>26.1</speed><fix>3</fix><sat>9</sat><hdop>0.8</hdop></trkpt>
			<trkpt lat="36.8279583" lon="-121.7732883"><ele>0.0</ele><time>2003-01-30T18:06:25Z</time><course>223.9</course><speed>27.0</speed><fix>3</fix><sat>8</sat><hdop>1</hdop></trkpt>
			<trkpt lat="36.8261983" lon="-121.7753700"><ele>0.0</ele><time>2003-01-30T18:06:35Z</time><course>223.3</course><speed>26.3</speed><fix>3</fix><sat>6</sat><hdop>2.1</hdop></trkpt>
			<trkpt lat="36.8245517" lon="-121.7775483"><ele>0.0</ele><time>2003-01-30T18:06:45Z</time><course>231.7</course><speed>26.3</speed><fix>3</fix><sat>9</sat><hdop>0.8</hdop></trkpt>
			<trkpt lat="36.8233750" lon="-121.7800983"><ele>0.0</ele><time>2003-01-30T18:06:55Z</time><course>242.8</course><speed>25.6</speed><fix>3</fix><sat>7</sat><hdop>1.8</hdop></trkpt>
			<trkpt lat="36.8225017" lon="-121.7821200"><ele>0.0</ele><time>2003-01-30T18:07:05Z</time><course>241.3</course><speed>20.6</speed><fix>3</fix><sat>7</sat><hdop>1.1</hdop></trkpt>
			<trkpt lat="36.8215383" lon="-121.7842683"><ele>0.0</ele><time>2003-01-30T18:07:15Z</time><course>233.8</course><speed>20.8</speed><fix>3</fix><sat>7</sat><hdop>1.4</hdop></trkpt>
			<trkpt lat="36.8199950" lon="-121.7857167"><ele>0.0</ele><time>2003-01-30T18:07:25Z</time><course>205.0</course><speed>21.8</speed><fix>3</fix><sat>9</sat><hdop>0.8</hdop></trkpt>
			<trkpt lat="36.8180967" lon="-121.7860667"><ele>0.0</ele><time>2003-01-30T18:07:35Z</time><course>178.2</course><speed>21.4</speed><fix>3</fix><sat>9</sat><hdop>0.8</hdop></trkpt>
			<trkpt lat="36.8162583" lon="-121.7859483"><ele>0.0</ele><time>2003-01-30T18:07:45Z</time><course>176.8</course><speed>21.3</speed><fix>3</fix><sat>9</sat><hdop>0.8</hdop></trkpt>
			<trkpt lat="36.8142967" lon="-121.7858033"><ele>0.0</ele><time>2003-01-30T18:07:55Z</time><course>176.8</course><speed>20.6</speed><fix>3</fix><sat>9</sat><hdop>0.8</hdop></trkpt>
			<trkpt lat="36.8125117" lon="-121.7856650"><ele>0.0</ele><time>2003-01-30T18:08:05Z</time><course>175.8</course><speed>19.8</speed><fix>3</fix><sat>9</sat><hdop>0.8</hdop></trkpt>
			<trkpt lat="36.8107150" lon="-121.7851383"><ele>0.0</ele><time>2003-01-30T18:08:15Z</time><course>160.7</course><speed>21.1</speed><fix>3</fix><sat>9</sat><hdop>0.8</hdop></trkpt>
			<trkpt lat="36.8089317" lon="-121.7843733"><ele>2.0</ele><time>2003-01-30T18:08:25Z</time><course>161.8</course><speed>20.7</speed><fix>3</fix><sat>9</sat><hdop>0.8</hdop></trkpt>
			<trkpt lat="36.8071683" lon="-121.7839417"><ele>6.0</ele><time>2003-01-30T18:08:35Z</time><course>170.6</course><speed>20.8</speed><fix>3</fix><sat>5</sat><hdop>2.2</hdop></trkpt>
			<trkpt lat="36.8052517" lon="-121.7838183"><ele>8.0</ele><time>2003-01-30T18:08:45Z</time><course>181.3</course><speed>21.0</speed><fix>3</fix><sat>8</sat><hdop>0.9</hdop></trkpt>
			<trkpt lat="36.8032800" lon="-121.7839217"><ele>8.0</ele><time>2003-01-30T18:08:55Z</time><course>179.9</course><speed>23.1</speed><fix>3</fix><sat>7</sat><hdop>1.1</hdop></trkpt>
			<trkpt lat="36.8013283" lon="-121.7835833"><ele>6.0</ele><time>2003-01-30T18:09:05Z</time><course>170.2</course><speed>21.3</speed><fix>3</fix><sat>9</sat><hdop>0.8</hdop></trkpt>
			<trkpt lat="36.7994067" lon="-121.7832700"><ele>1.0</ele><time>2003-01-30T18:09:15Z</time><course>174.1</course><speed>21.0</speed><fix>3</fix><sat>7</sat><hdop>1.1</hdop></trkpt>
			<trkpt lat="36.7974567" lon="-121.7833600"><ele>0.0</ele><time>2003-01-30T18:09:25Z</time><course>183.4</course><speed>22.5</speed><fix>3</fix><sat>9</sat><hdop>0.8</hdop></trkpt>
			<trkpt lat="36.7954817" lon="-121.7835150"><ele>0.0</ele><time>2003-01-30T18:09:35Z</time><course>183.8</course><speed>22.1</speed><fix>3</fix><sat>9</sat><hdop>0.8</hdop></trkpt>
			<trkpt lat="36.7936383" lon="-121.7836750"><ele>0.0</ele><time>2003-01-30T18:09:44Z</time><course>183.7</course><speed>22.0</speed><fix>3</fix><sat>9</sat><hdop>0.8</hdop></trkpt>
			<trkpt lat="36.7917483" lon="-121.7837767"><ele>0.0</ele><time>2003-01-30T18:09:54Z</time><course>176.5</course><speed>20.0</speed><fix>3</fix><sat>9</sat><hdop>0.8</hdop></trkpt>
			<trkpt lat="36.7898650" lon="-121.7832500"><ele>3.0</ele><time>2003-01-30T18:10:04Z</time><course>160.5</course><speed>23.5</speed><fix>3</fix><sat>9</sat><hdop>0.8</hdop></trkpt>
			<trkpt lat="36.7878233" lon="-121.7823933"><ele>2.0</ele><time>2003-01-30T18:10:14Z</time><course>161.5</course><speed>23.8</speed><fix>3</fix><sat>9</sat><hdop>0.8</hdop></trkpt>
			<trkpt lat="36.7858017" lon="-121.7815500"><ele>0.0</ele><time>2003-01-30T18:10:24Z</time><course>161.4</course><speed>24.1</speed><fix>3</fix><sat>9</sat><hdop>0.8</hdop></trkpt>
			<trkpt lat="36.7837517" lon="-121.7807017"><ele>0.0</ele><time>2003-01-30T18:10:34Z</time><course>161.2</course><speed>23.9</speed><fix>3</fix><sat>9</sat><hdop>0.8</hdop></trkpt>
			<trkpt lat="36.7818667" lon="-121.7794650"><ele>0.0</ele><time>2003-01-30T18:10:44Z</time><course>141.9</course><speed>23.4</speed><fix>3</fix><sat>8</sat><hdop>1</hdop></trkpt>
			<trkpt lat="36.7802517" lon="-121.7777267"><ele>1.0</ele><time>2003-01-30T18:10:54Z</time><course>136.3</course><speed>24.0</speed><fix>3</fix><sat>8</sat><hdop>1</hdop></trkpt>
			<trkpt lat="36.7786717" lon="-121.7758133"><ele>1.0</ele><time>2003-01-30T18:11:04Z</time><course>136.0</course><speed>25.4</speed><fix>3</fix><sat>8</sat><hdop>1</hdop></trkpt>
			<trkpt lat="36.7770650" lon="-121.7738967"><ele>3.0</ele><time>2003-01-30T18:11:14Z</time><course>136.1</course><speed>24.2</speed><fix>3</fix><sat>8</sat><hdop>1</hdop></trkpt>
			<trkpt lat="36.7756383" lon="-121.7719917"><ele>3.0</ele><time>2003-01-30T18:11:24Z</time><course>130.4</course><speed>23.2</speed><fix>3</fix><sat>8</sat><hdop>0.8</hdop></trkpt>
			<trkpt lat="36.7742567" lon="-121.7699900"><ele>3.0</ele><time>2003-01-30T18:11:34Z</time><course>130.9</course><speed>23.8</speed><fix>3</fix><sat>9</sat><hdop>0.8</hdop></trkpt>
			<trkpt lat="36.7728633" lon="-121.7679717"><ele>3.0</ele><time>2003-01-30T18:11:44Z</time><course>130.8</course><speed>22.7</speed><fix>3</fix><sat>9</sat><hdop>0.8</hdop></trkpt>
			<trkpt lat="36.7715917" lon="-121.7661783"><ele>3.0</ele><time>2003-01-30T18:11:54Z</time><course>136.9</course><speed>22.9</speed><fix>3</fix><sat>8</sat><hdop>1</hdop></trkpt>
			<trkpt lat="36.7695383" lon="-121.7652383"><ele>5.0</ele><time>2003-01-30T18:12:04Z</time><course>176.5</course><speed>26.0</speed><fix>3</fix><sat>9</sat><hdop>0.8</hdop></trkpt>
			<trkpt lat="36.7671433" lon="-121.7651867"><ele>3.0</ele><time>2003-01-30T18:12:14Z</time><course>183.6</course><speed>28.2</speed><fix>3</fix><sat>8</sat><hdop>0.8</hdop></trkpt>
			<trkpt lat="36.7645450" lon="-121.7654450"><ele>2.0</ele><time>2003-01-30T18:12:24Z</time><course>184.5</course><speed>29.0</speed><fix>3</fix><sat>9</sat><hdop>0.8</hdop></trkpt>
			<trkpt lat="36.7619533" lon="-121.7657083"><ele>1.0</ele><time>2003-01-30T18:12:34Z</time><course>184.7</course><speed>28.2</speed><fix>3</fix><sat>9</sat><hdop>0.8</hdop></trkpt>
			<trkpt lat="36.7593833" lon="-121.7658783"><ele>2.0</ele><time>2003-01-30T18:12:44Z</time><course>179.5</course><speed>30.1</speed><fix>3</fix><sat>9</sat><hdop>0.8</hdop></trkpt>
			<trkpt lat="36.7566350" lon="-121.7657133"><ele>2.0</ele><time>2003-01-30T18:12:54Z</time><course>179.0</course><speed>30.4</speed><fix>3</fix><sat>9</sat><hdop>0.8</hdop></trkpt>
			<trkpt lat="36.7539300" lon="-121.7661533"><ele>1.0</ele><time>2003-01-30T18:13:04Z</time><course>195.3</course><speed>30.7</speed><fix>3</fix><sat>9</sat><hdop>0.8</hdop></trkpt>
			<trkpt lat="36.7513750" lon="-121.7675650"><ele>1.0</ele><time>2003-01-30T18:13:14Z</time><course>210.5</course><speed>31.5</speed><fix>3</fix><sat>9</sat><hdop>0.8</hdop></trkpt>
			<trkpt lat="36.7489550" lon="-121.7693383"><ele>1.0</ele><time>2003-01-30T18:13:24Z</time><course>210.3</course><speed>31.2</speed><fix>3</fix><sat>9</sat><hdop>0.8</hdop></trkpt>
			<trkpt lat="36.7465317" lon="-121.7711067"><ele>0.0</ele><time>2003-01-30T18:13:34Z</time><course>210.4</course><speed>30.9</speed><fix>3</fix><sat>9</sat><hdop>0.8</hdop></trkpt>
			<trkpt lat="36.7442083" lon="-121.7728017"><ele>1.0</ele><time>2003-01-30T18:13:44Z</time><course>210.6</course><speed>29.6</speed><fix>3</fix><sat>9</sat><hdop>0.8</hdop></trkpt>
			<trkpt lat="36.7419333" lon="-121.7744567"><ele>0.0</ele><time>2003-01-30T18:13:54Z</time><course>210.5</course><speed>29.1</speed><fix>3</fix><sat>8</sat><hdop>0.8</hdop></trkpt>
			<trkpt lat="36.7396300" lon="-121.7761400"><ele>0.0</ele><time>2003-01-30T18:14:04Z</time><course>210.6</course><speed>29.5</speed><fix>3</fix><sat>8</sat><hdop>0.8</hdop></trkpt>
			<trkpt lat="36.7373800" lon="-121.7777900"><ele>0.0</ele><time>2003-01-30T18:14:14Z</time><course>210.8</course><speed>28.3</speed><fix>3</fix><sat>9</sat><hdop>0.8</hdop></trkpt>
			<trkpt lat="36.7352467" lon="-121.7796383"><ele>1.0</ele><time>2003-01-30T18:14:24Z</time><course>219.6</course><speed>29.7</speed><fix>3</fix><sat>8</sat><hdop>1</hdop></trkpt>
			<trkpt lat="36.7331833" lon="-121.7818517"><ele>4.0</ele><time>2003-01-30T18:14:34Z</time><course>220.8</course><speed>30.5</speed><fix>3</fix><sat>8</sat><hdop>1</hdop></trkpt>
			<trkpt lat="36.7311217" lon="-121.7840617"><ele>5.0</ele><time>2003-01-30T18:14:44Z</time><course>221.2</course><speed>29.9</speed><fix>3</fix><sat>9</sat><hdop>0.8</hdop></trkpt>
			<trkpt lat="36.7290567" lon="-121.7862750"><ele>4.0</ele><time>2003-01-30T18:14:54Z</time><course>220.7</course><speed>30.4</speed><fix>3</fix><sat>9</sat><hdop>0.8</hdop></trkpt>
			<trkpt lat="36.7269850" lon="-121.7884450"><ele>4.0</ele><time>2003-01-30T18:15:04Z</time><course>217.1</course><speed>30.2</speed><fix>3</fix><sat>9</sat><hdop>0.8</hdop></trkpt>
			<trkpt lat="36.7246650" lon="-121.7903300"><ele>1.0</ele><time>2003-01-30T18:15:14Z</time><course>212.2</course><speed>31.3</speed><fix>3</fix><sat>8</sat><hdop>1</hdop></trkpt>
			<trkpt lat="36.7222617" lon="-121.7920317"><ele>1.0</ele><time>2003-01-30T18:15:24Z</time><course>206.0</course><speed>30.4</speed><fix>3</fix><sat>9</sat><hdop>0.8</hdop></trkpt>
			<trkpt lat="36.7197000" lon="-121.7933583"><ele>4.0</ele><time>2003-01-30T18:15:34Z</time><course>198.8</course><speed>31.2</speed><fix>3</fix><sat>8</sat><hdop>1</hdop></trkpt>
			<trkpt lat="36.7170233" lon="-121.7943900"><ele>11.0</ele><time>2003-01-30T18:15:44Z</time><course>196.4</course><speed>30.7</speed><fix>3</fix><sat>9</sat><hdop>0.8</hdop></trkpt>
			<trkpt lat="36.7143967" lon="-121.7953767"><ele>18.0</ele><time>2003-01-30T18:15:54Z</time><course>198.3</course><speed>31.0</speed><fix>3</fix><sat>9</sat><hdop>0.8</hdop></trkpt>
			<trkpt lat="36.7117350" lon="-121.7966350"><ele>21.0</ele><time>2003-01-30T18:16:04Z</time><course>203.5</course><speed>32.3</speed><fix>3</fix><sat>9</sat><hdop>0.8</hdop></trkpt>
			<trkpt lat="36.7090767" lon="-121.7981500"><ele>18.0</ele><time>2003-01-30T18:16:14Z</time><course>204.9</course><speed>32.4</speed><fix>3</fix><sat>9</sat><hdop>0.8</hdop></trkpt>
			<trkpt lat="36.7063517" lon="-121.7997050"><ele>11.0</ele><time>2003-01-30T18:16:24Z</time><course>204.9</course><speed>33.7</speed><fix>3</fix><sat>9</sat><hdop>0.8</hdop></trkpt>
			<trkpt lat="36.7036250" lon="-121.8012517"><ele>9.0</ele><time>2003-01-30T18:16:34Z</time><course>204.4</course><speed>31.9</speed><fix>3</fix><sat>9</sat><hdop>0.8</hdop></trkpt>
			<trkpt lat="36.7010950" lon="-121.8026967"><ele>8.0</ele><time>2003-01-30T18:16:44Z</time><course>204.5</course><speed>30.9</speed><fix>3</fix><sat>9</sat><hdop>0.8</hdop></trkpt>
			<trkpt lat="36.6985483" lon="-121.8041533"><ele>9.0</ele><time>2003-01-30T18:16:54Z</time><course>204.6</course><speed>31.3</speed><fix>3</fix><sat>9</sat><hdop>0.8</hdop></trkpt>
			<trkpt lat="36.6960067" lon="-121.8055983"><ele>10.0</ele><time>2003-01-30T18:17:04Z</time><course>205.0</course><speed>30.5</speed><fix>3</fix><sat>9</sat><hdop>0.8</hdop></trkpt>
			<trkpt lat="36.6935383" lon="-121.8070083"><ele>8.0</ele><time>2003-01-30T18:17:14Z</time><course>204.6</course><speed>29.4</speed><fix>3</fix><sat>8</sat><hdop>0.9</hdop></trkpt>
			<trkpt lat="36.6910967" lon="-121.8082800"><ele>7.0</ele><time>2003-01-30T18:17:24Z</time><course>198.6</course><speed>30.0</speed><fix>3</fix><sat>8</sat><hdop>1</hdop></trkpt>
			<trkpt lat="36.6884817" lon="-121.8090250"><ele>7.0</ele><time>2003-01-30T18:17:34Z</time><course>187.5</course><speed>29.7</speed><fix>3</fix><sat>9</sat><hdop>0.8</hdop></trkpt>
			<trkpt lat="36.6857983" lon="-121.8091300"><ele>12.0</ele><time>2003-01-30T18:17:44Z</time><course>176.3</course><speed>29.8</speed><fix>3</fix><sat>9</sat><hdop>0.8</hdop></trkpt>
			<trkpt lat="36.6831700" lon="-121.8086117"><ele>19.0</ele><time>2003-01-30T18:17:54Z</time><course>166.8</course><speed>28.9</speed><fix>3</fix><sat>7</sat><hdop>1.1</hdop></trkpt>
			<trkpt lat="36.6806967" lon="-121.8078817"><ele>22.0</ele><time>2003-01-30T18:18:04Z</time><course>167.4</course><speed>28.5</speed><fix>3</fix><sat>9</sat><hdop>0.8</hdop></trkpt>
			<trkpt lat="36.6780283" lon="-121.8078217"><ele>22.0</ele><time>2003-01-30T18:18:14Z</time><course>189.0</course><speed>31.1</speed><fix>3</fix><sat>9</sat><hdop>0.8</hdop></trkpt>
			<trkpt lat="36.6752867" lon="-121.8090233"><ele>19.0</ele><time>2003-01-30T18:18:24Z</time><course>209.3</course><speed>33.2</speed><fix>3</fix><sat>8</sat><hdop>0.8</hdop></trkpt>
			<trkpt lat="36.6728117" lon="-121.8111567"><ele>18.0</ele><time>2003-01-30T18:18:34Z</time><course>210.8</course><speed>33.5</speed><fix>3</fix><sat>8</sat><hdop>0.9</hdop></trkpt>
			<trkpt lat="36.6701400" lon="-121.8127783"><ele>15.0</ele><time>2003-01-30T18:18:44Z</time><course>205.2</course><speed>32.9</speed><fix>3</fix><sat>8</sat><hdop>0.9</hdop></trkpt>
			<trkpt lat="36.6674583" lon="-121.8143450"><ele>15.0</ele><time>2003-01-30T18:18:54Z</time><course>205.1</course><speed>32.6</speed><fix>3</fix><sat>9</sat><hdop>0.8</hdop></trkpt>
			<trkpt lat="36.6648017" lon="-121.8157483"><ele>18.0</ele><time>2003-01-30T18:19:04Z</time><course>197.0</course><speed>31.6</speed><fix>3</fix><sat>8</sat><hdop>0.9</hdop></trkpt>
			<trkpt lat="36.6621633" lon="-121.8164817"><ele>20.0</ele><time>2003-01-30T18:19:14Z</time><course>187.1</course><speed>29.0</speed><fix>3</fix><sat>8</sat><hdop>0.9</hdop></trkpt>
			<trkpt lat="36.6595267" lon="-121.8167150"><ele>24.0</ele><time>2003-01-30T18:19:24Z</time><course>183.8</course><speed>29.0</speed><fix>3</fix><sat>8</sat><hdop>0.9</hdop></trkpt>
			<trkpt lat="36.6569550" lon="-121.8168600"><ele>32.0</ele><time>2003-01-30T18:19:34Z</time><course>178.7</course><speed>28.1</speed><fix>3</fix><sat>9</sat><hdop>0.8</hdop></trkpt>
			<trkpt lat="36.6544650" lon="-121.8164817"><ele>36.0</ele><time>2003-01-30T18:19:44Z</time><course>167.3</course><speed>28.2</speed><fix>3</fix><sat>8</sat><hdop>0.9</hdop></trkpt>
			<trkpt lat="36.6518867" lon="-121.8154750"><ele>36.0</ele><time>2003-01-30T18:19:54Z</time><course>160.6</course><speed>30.6</speed><fix>3</fix><sat>9</sat><hdop>0.8</hdop></trkpt>
			<trkpt lat="36.6491167" lon="-121.8150767"><ele>36.0</ele><time>2003-01-30T18:20:04Z</time><course>188.1</course><speed>31.2</speed><fix>3</fix><sat>9</sat><hdop>0.8</hdop></trkpt>
			<trkpt lat="36.6467067" lon="-121.8163417"><ele>38.0</ele><time>2003-01-30T18:20:14Z</time><course>217.1</course><speed>26.7</speed><fix>3</fix><sat>7</sat><hdop>1.1</hdop></trkpt>
			<trkpt lat="36.6454983" lon="-121.8181933"><ele>36.0</ele><time>2003-01-30T18:20:24Z</time><course>261.1</course><speed>15.1</speed><fix>3</fix><sat>7</sat><hdop>0.9</hdop></trkpt>
			<trkpt lat="36.6464717" lon="-121.8186183"><ele>38.0</ele><time>2003-01-30T18:20:34Z</time><course>49.0</course><speed>18.0</speed><fix>3</fix><sat>8</sat><hdop>0.9</hdop></trkpt>
			<trkpt lat="36.6472933" lon="-121.8165083"><ele>47.0</ele><time>2003-01-30T18:20:44Z</time><course>76.1</course><speed>22.5</speed><fix>3</fix><sat>8</sat><hdop>0.9</hdop></trkpt>
			<trkpt lat="36.6475967" lon="-121.8142067"><ele>46.0</ele><time>2003-01-30T18:20:54Z</time><course>85.0</course><speed>20.6</speed><fix>3</fix><sat>8</sat><hdop>0.9</hdop></trkpt>
			<trkpt lat="36.6477000" lon="-121.8119350"><ele>49.0</ele><time>2003-01-30T18:21:04Z</time><course>85.4</course><speed>19.9</speed><fix>3</fix><sat>8</sat><hdop>0.9</hdop></trkpt>
			<trkpt lat="36.6478333" lon="-121.8100150"><ele>55.0</ele><time>2003-01-30T18:21:14Z</time><course>87.7</course><speed>9.3</speed><fix>3</fix><sat>7</sat><hdop>0.9</hdop></trkpt>
			<trkpt lat="36.6484883" lon="-121.8096817"><ele>55.0</ele><time>2003-01-30T18:21:24Z</time><course>1.9</course><speed>13.6</speed><fix>3</fix><sat>8</sat><hdop>0.9</hdop></trkpt>
			<trkpt lat="36.6499850" lon="-121.8094750"><ele>51.0</ele><time>2003-01-30T18:21:34Z</time><course>9.2</course><speed>18.1</speed><fix>3</fix><sat>8</sat><hdop>0.9</hdop></trkpt>
			<trkpt lat="36.6514850" lon="-121.8091800"><ele>49.0</ele><time>2003-01-30T18:21:44Z</time><course>7.6</course><speed>15.3</speed><fix>3</fix><sat>9</sat><hdop>0.8</hdop></trkpt>
			<trkpt lat="36.6526650" lon="-121.8091100"><ele>53.0</ele><time>2003-01-30T18:21:54Z</time><course>1.3</course><speed>10.5</speed><fix>3</fix><sat>7</sat><hdop>1.1</hdop></trkpt>
			<trkpt lat="36.6531367" lon="-121.8091067"><ele>53.0</ele><time>2003-01-30T18:22:04Z</time><course>3.3</course><speed>5.2</speed><fix>3</fix><sat>7</sat><hdop>1.1</hdop></trkpt>
			<trkpt lat="36.6541100" lon="-121.8092183"><ele>51.0</ele><time>2003-01-30T18:22:14Z</time><course>359.5</course><speed>14.0</speed><fix>3</fix><sat>8</sat><hdop>0.9</hdop></trkpt>
			<trkpt lat="36.6547467" lon="-121.8088800"><ele>52.0</ele><time>2003-01-30T18:22:24Z</time><course>90.1</course><speed>10.2</speed><fix>3</fix><sat>7</sat><hdop>0.9</hdop></trkpt>
			<trkpt lat="36.6547417" lon="-121.8074150"><ele>47.0</ele><time>2003-01-30T18:22:34Z</time><course>90.3</course><speed>14.2</speed><fix>3</fix><sat>8</sat><hdop>0.9</hdop></trkpt>
			<trkpt lat="36.6547333" lon="-121.8058667"><ele>46.0</ele><time>2003-01-30T18:22:44Z</time><course>91.5</course><speed>12.4</speed><fix>3</fix><sat>7</sat><hdop>0.9</hdop></trkpt>
			<trkpt lat="36.6547217" lon="-121.8044317"><ele>47.0</ele><time>2003-01-30T18:22:54Z</time><course>91.3</course><speed>13.4</speed><fix>3</fix><sat>8</sat><hdop>0.9</hdop></trkpt>
			<trkpt lat="36.6547200" lon="-121.8031683"><ele>53.0</ele><time>2003-01-30T18:23:04Z</time><course>90.9</course><speed>5.5</speed><fix>3</fix><sat>8</sat><hdop>0.9</hdop></trkpt>
			<trkpt lat="36.6547450" lon="-121.8029267"><ele>54.0</ele><time>2003-01-30T18:23:14Z</time><course>55.9</course><speed>5.2</speed><fix>3</fix><sat>8</sat><hdop>0.9</hdop></trkpt>
			<trkpt lat="36.6556150" lon="-121.8028433"><ele>55.0</ele><time>2003-01-30T18:23:24Z</time><course>359.8</course><speed>9.7</speed><fix>3</fix><sat>7</sat><hdop>1.1</hdop></trkpt>
			<trkpt lat="36.6560100" lon="-121.8027583"><ele>54.0</ele><time>2003-01-30T18:23:34Z</time><course>116.4</course><speed>0.3</speed><fix>3</fix><sat>8</sat><hdop>0.9</hdop></trkpt>
		</trkseg>
	</trk>
</gpx>
